createdAt,value
2022-08-03T00:00:34.532Z,100286.00
2022-08-03T00:03:02.064Z,100282.00
2022-08-03T00:05:29.765Z,100284.00
2022-08-03T00:07:57.300Z,100289.00
2022-08-03T00:10:24.938Z,100280.00
2022-08-03T00:12:52.860Z,100281.00
2022-08-03T00:15:20.794Z,100276.00
2022-08-03T00:17:52.720Z,100269.00
2022-08-03T00:20:22.616Z,100272.00
2022-08-03T00:22:51.706Z,100267.00
2022-08-03T00:25:20.092Z,100266.00
2022-08-03T00:27:48.441Z,100267.00
2022-08-03T00:30:18.106Z,100268.00
2022-08-03T00:32:45.703Z,100267.00
2022-08-03T00:35:20.456Z,100269.00
2022-08-03T00:38:01.373Z,100257.00
2022-08-03T00:40:29.301Z,100269.00
2022-08-03T00:43:03.449Z,100265.00
2022-08-03T00:45:41.124Z,100263.00
2022-08-03T00:48:29.473Z,100261.00
2022-08-03T00:51:00.182Z,100261.00
2022-08-03T00:53:28.582Z,100264.00
2022-08-03T00:55:56.384Z,100264.00
2022-08-03T00:58:24.667Z,100259.00
2022-08-03T01:00:52.474Z,100264.00
2022-08-03T01:03:20.148Z,100270.00
2022-08-03T01:06:00.802Z,100262.00
2022-08-03T01:08:49.941Z,100261.00
2022-08-03T01:12:00.299Z,100264.00
2022-08-03T01:14:45.065Z,100255.00
2022-08-03T01:17:15.690Z,100255.00
2022-08-03T01:20:03.971Z,100262.00
2022-08-03T01:23:06.938Z,100254.00
2022-08-03T01:25:54.470Z,100256.00
2022-08-03T01:28:58.810Z,100249.00
2022-08-03T01:32:59.769Z,100251.00
2022-08-03T01:34:53.147Z,100251.00
2022-08-03T01:37:31.182Z,100246.00
2022-08-03T01:40:02.432Z,100247.00
2022-08-03T01:42:31.029Z,100247.00
2022-08-03T01:45:01.428Z,100250.00
2022-08-03T01:47:30.881Z,100251.00
2022-08-03T01:49:59.189Z,100252.00
2022-08-03T01:52:28.085Z,100254.00
2022-08-03T01:54:57.206Z,100248.00
2022-08-03T01:57:25.881Z,100251.00
2022-08-03T01:59:56.479Z,100249.00
2022-08-03T02:02:33.572Z,100253.00
2022-08-03T02:05:10.618Z,100257.00
2022-08-03T02:07:41.848Z,100248.00
2022-08-03T02:10:13.659Z,100252.00
2022-08-03T02:12:45.909Z,100258.00
2022-08-03T02:15:17.110Z,100252.00
2022-08-03T02:17:48.408Z,100248.00
2022-08-03T02:20:17.859Z,100253.00
2022-08-03T02:22:45.830Z,100250.00
2022-08-03T02:25:16.032Z,100254.00
2022-08-03T02:28:02.170Z,100250.00
2022-08-03T02:30:39.901Z,100250.00
2022-08-03T02:33:33.046Z,100253.00
2022-08-03T02:36:03.023Z,100246.00
2022-08-03T02:38:36.617Z,100248.00
2022-08-03T02:41:11.631Z,100239.00
2022-08-03T02:44:05.999Z,100243.00
2022-08-03T02:46:38.687Z,100242.00
2022-08-03T02:49:40.898Z,100236.00
2022-08-03T02:51:56.695Z,100230.00
2022-08-03T02:54:27.081Z,100237.00
2022-08-03T02:56:58.725Z,100231.00
2022-08-03T02:59:31.372Z,100230.00
2022-08-03T03:02:01.622Z,100227.00
2022-08-03T03:04:33.291Z,100228.00
2022-08-03T03:07:01.852Z,100225.00
2022-08-03T03:09:41.606Z,100218.00
2022-08-03T03:12:13.689Z,100224.00
2022-08-03T03:14:41.776Z,100224.00
2022-08-03T03:17:18.015Z,100222.00
2022-08-03T03:19:46.991Z,100228.00
2022-08-03T03:22:16.112Z,100219.00
2022-08-03T03:24:44.949Z,100227.00
2022-08-03T03:27:16.723Z,100221.00
2022-08-03T03:29:45.108Z,100231.00
2022-08-03T03:32:13.628Z,100224.00
2022-08-03T03:34:41.963Z,100227.00
2022-08-03T03:37:12.075Z,100229.00
2022-08-03T03:39:40.087Z,100224.00
2022-08-03T03:42:07.715Z,100231.00
2022-08-03T03:44:35.436Z,100224.00
2022-08-03T03:47:03.914Z,100224.00
2022-08-03T03:49:32.705Z,100219.00
2022-08-03T03:52:00.377Z,100229.00
2022-08-03T03:54:29.107Z,100225.00
2022-08-03T03:56:57.081Z,100224.00
2022-08-03T03:59:24.936Z,100224.00
2022-08-03T04:01:59.272Z,100230.00
2022-08-03T04:04:45.657Z,100228.00
2022-08-03T04:07:31.910Z,100234.00
2022-08-03T04:10:17.999Z,100240.00
2022-08-03T04:12:49.879Z,100233.00
2022-08-03T04:15:21.188Z,100232.00
2022-08-03T04:17:51.205Z,100231.00
2022-08-03T04:20:21.426Z,100240.00
2022-08-03T04:22:53.266Z,100228.00
2022-08-03T04:25:24.038Z,100237.00
2022-08-03T04:28:07.685Z,100234.00
2022-08-03T04:30:49.201Z,100238.00
2022-08-03T04:33:17.936Z,100241.00
2022-08-03T04:36:00.963Z,100242.00
2022-08-03T04:38:43.116Z,100242.00
2022-08-03T04:41:12.171Z,100247.00
2022-08-03T04:43:41.958Z,100239.00
2022-08-03T04:46:10.742Z,100245.00
2022-08-03T04:48:39.738Z,100247.00
2022-08-03T04:51:11.115Z,100243.00
2022-08-03T04:53:38.745Z,100240.00
2022-08-03T04:56:07.382Z,100246.00
2022-08-03T04:58:35.124Z,100250.00
2022-08-03T05:01:04.028Z,100250.00
2022-08-03T05:03:32.263Z,100258.00
2022-08-03T05:06:09.757Z,100249.00
2022-08-03T05:08:46.286Z,100250.00
2022-08-03T05:11:16.506Z,100258.00
2022-08-03T05:13:45.327Z,100263.00
2022-08-03T05:16:14.465Z,100266.00
2022-08-03T05:18:44.425Z,100258.00
2022-08-03T05:21:14.793Z,100260.00
2022-08-03T05:23:42.260Z,100257.00
2022-08-03T05:26:12.193Z,100260.00
2022-08-03T05:28:39.942Z,100252.00
2022-08-03T05:31:19.831Z,100256.00
2022-08-03T05:33:49.145Z,100252.00
2022-08-03T05:36:16.674Z,100253.00
2022-08-03T05:38:46.856Z,100253.00
2022-08-03T05:41:21.125Z,100258.00
2022-08-03T05:43:55.382Z,100246.00
2022-08-03T05:46:23.914Z,100248.00
2022-08-03T05:48:51.872Z,100245.00
2022-08-03T05:51:19.495Z,100247.00
2022-08-03T05:53:49.712Z,100241.00
2022-08-03T05:56:17.245Z,100247.00
2022-08-03T05:58:46.999Z,100248.00
2022-08-03T06:01:17.125Z,100250.00
2022-08-03T06:03:46.684Z,100244.00
2022-08-03T06:06:14.677Z,100240.00
2022-08-03T06:08:43.639Z,100247.00
2022-08-03T06:11:11.246Z,100249.00
2022-08-03T06:13:39.114Z,100249.00
2022-08-03T06:16:06.738Z,100242.00
2022-08-03T06:18:36.915Z,100252.00
2022-08-03T06:21:14.013Z,100257.00
2022-08-03T06:23:54.661Z,100250.00
2022-08-03T06:26:25.374Z,100247.00
2022-08-03T06:28:54.398Z,100256.00
2022-08-03T06:31:33.254Z,100251.00
2022-08-03T06:34:32.989Z,100249.00
2022-08-03T06:36:58.554Z,100246.00
2022-08-03T06:39:29.100Z,100241.00
2022-08-03T06:41:56.833Z,100244.00
2022-08-03T06:44:24.442Z,100250.00
2022-08-03T06:46:52.696Z,100253.00
2022-08-03T06:49:20.419Z,100254.00
2022-08-03T06:52:05.570Z,100251.00
2022-08-03T06:54:34.676Z,100256.00
2022-08-03T06:57:02.073Z,100260.00
2022-08-03T07:00:08.178Z,100261.00
2022-08-03T07:02:19.386Z,100253.00
2022-08-03T07:04:50.946Z,100266.00
2022-08-03T07:07:19.565Z,100264.00
2022-08-03T07:09:57.077Z,100262.00
2022-08-03T07:12:27.214Z,100264.00
2022-08-03T07:15:00.327Z,100261.00
2022-08-03T07:17:31.055Z,100265.00
2022-08-03T07:19:59.887Z,100264.00
2022-08-03T07:22:28.659Z,100263.00
2022-08-03T07:24:57.004Z,100261.00
2022-08-03T07:27:27.107Z,100260.00
2022-08-03T07:29:55.582Z,100265.00
2022-08-03T07:32:24.072Z,100268.00
2022-08-03T07:34:53.795Z,100267.00
2022-08-03T07:37:25.255Z,100271.00
2022-08-03T07:39:52.811Z,100276.00
2022-08-03T07:42:20.822Z,100269.00
2022-08-03T07:44:48.507Z,100266.00
2022-08-03T07:47:25.804Z,100261.00
2022-08-03T07:50:05.144Z,100262.00
2022-08-03T07:52:53.098Z,100267.00
2022-08-03T07:55:25.694Z,100267.00
2022-08-03T07:58:19.160Z,100268.00
2022-08-03T08:00:51.226Z,100261.00
2022-08-03T08:03:19.423Z,100260.00
2022-08-03T08:05:47.083Z,100254.00
2022-08-03T08:08:14.938Z,100261.00
2022-08-03T08:10:42.689Z,100269.00
2022-08-03T08:13:26.341Z,100260.00
2022-08-03T08:15:53.955Z,100257.00
2022-08-03T08:18:21.624Z,100254.00
2022-08-03T08:20:49.110Z,100261.00
2022-08-03T08:23:42.854Z,100257.00
2022-08-03T08:26:11.341Z,100257.00
2022-08-03T08:28:40.192Z,100250.00
2022-08-03T08:31:08.074Z,100259.00
2022-08-03T08:34:01.457Z,100249.00
2022-08-03T08:36:24.705Z,100249.00
2022-08-03T08:38:52.537Z,100256.00
2022-08-03T08:41:20.122Z,100255.00
2022-08-03T08:43:47.788Z,100253.00
2022-08-03T08:46:22.955Z,100253.00
2022-08-03T08:48:53.849Z,100250.00
2022-08-03T08:51:22.974Z,100254.00
2022-08-03T08:53:53.994Z,100249.00
2022-08-03T08:56:26.249Z,100245.00
2022-08-03T08:58:59.660Z,100254.00
2022-08-03T09:01:28.319Z,100255.00
2022-08-03T09:03:56.137Z,100250.00
2022-08-03T09:06:24.450Z,100256.00
2022-08-03T09:08:52.271Z,100257.00
2022-08-03T09:11:52.364Z,100250.00
2022-08-03T09:14:36.870Z,100249.00
2022-08-03T09:17:03.481Z,100252.00
2022-08-03T09:19:35.800Z,100259.00
2022-08-03T09:22:13.009Z,100252.00
2022-08-03T09:25:23.400Z,100253.00
2022-08-03T09:27:51.698Z,100243.00
2022-08-03T09:30:34.537Z,100248.00
2022-08-03T09:33:16.593Z,100248.00
2022-08-03T09:35:57.295Z,100246.00
2022-08-03T09:38:28.991Z,100246.00
2022-08-03T09:41:00.212Z,100234.00
2022-08-03T09:43:28.907Z,100234.00
2022-08-03T09:46:07.697Z,100235.00
2022-08-03T09:48:37.288Z,100242.00
2022-08-03T09:51:13.551Z,100246.00
2022-08-03T09:53:58.743Z,100243.00
2022-08-03T09:56:46.434Z,100242.00
2022-08-03T09:59:33.468Z,100237.00
2022-08-03T10:02:02.124Z,100245.00
2022-08-03T10:04:29.777Z,100241.00
2022-08-03T10:07:10.224Z,100236.00
2022-08-03T10:09:38.654Z,100239.00
2022-08-03T10:12:13.706Z,100240.00
2022-08-03T10:14:45.171Z,100231.00
2022-08-03T10:17:12.924Z,100237.00
2022-08-03T10:19:41.687Z,100246.00
2022-08-03T10:22:19.629Z,100237.00
2022-08-03T10:24:55.021Z,100234.00
2022-08-03T10:27:24.508Z,100230.00
2022-08-03T10:29:55.961Z,100228.00
2022-08-03T10:32:30.886Z,100227.00
2022-08-03T10:35:20.827Z,100226.00
2022-08-03T10:38:18.765Z,100218.00
2022-08-03T10:40:49.527Z,100212.00
2022-08-03T10:43:23.176Z,100223.00
2022-08-03T10:45:52.270Z,100217.00
2022-08-03T10:48:21.158Z,100216.00
2022-08-03T10:50:51.046Z,100222.00
2022-08-03T10:53:55.541Z,100213.00
2022-08-03T10:56:54.739Z,100209.00
2022-08-03T10:59:47.026Z,100213.00
2022-08-03T11:02:16.032Z,100209.00
2022-08-03T11:04:45.358Z,100202.00
2022-08-03T11:07:25.894Z,100211.00
2022-08-03T11:09:56.602Z,100207.00
2022-08-03T11:12:30.768Z,100202.00
2022-08-03T11:15:07.460Z,100211.00
2022-08-03T11:17:46.717Z,100201.00
2022-08-03T11:20:55.223Z,100202.00
2022-08-03T11:24:04.361Z,100195.00
2022-08-03T11:26:34.787Z,100204.00
2022-08-03T11:29:29.623Z,100199.00
2022-08-03T11:31:58.004Z,100198.00
2022-08-03T11:34:26.651Z,100189.00
2022-08-03T11:37:28.575Z,100189.00
2022-08-03T11:39:59.017Z,100190.00
2022-08-03T11:42:29.280Z,100193.00
2022-08-03T11:44:59.516Z,100188.00
2022-08-03T11:47:30.137Z,100196.00
2022-08-03T11:50:00.814Z,100190.00
2022-08-03T11:52:35.072Z,100192.00
2022-08-03T11:55:03.476Z,100197.00
2022-08-03T11:59:01.688Z,100195.00
2022-08-03T12:00:28.087Z,100202.00
2022-08-03T12:03:06.589Z,100195.00
2022-08-03T12:05:53.635Z,100195.00
2022-08-03T12:08:28.909Z,100188.00
2022-08-03T12:11:00.123Z,100193.00
2022-08-03T12:14:26.893Z,100183.00
2022-08-03T12:16:24.271Z,100191.00
2022-08-03T12:19:07.110Z,100183.00
2022-08-03T12:21:34.739Z,100183.00
2022-08-03T12:24:05.368Z,100188.00
2022-08-03T12:26:57.232Z,100187.00
2022-08-03T12:29:27.670Z,100185.00
2022-08-03T12:31:55.927Z,100178.00
2022-08-03T12:34:24.514Z,100183.00
2022-08-03T12:36:56.850Z,100178.00
2022-08-03T12:39:27.761Z,100174.00
2022-08-03T12:41:56.645Z,100172.00
2022-08-03T12:44:33.360Z,100174.00
2022-08-03T12:47:02.914Z,100180.00
2022-08-03T12:49:54.659Z,100173.00
2022-08-03T12:52:23.906Z,100169.00
2022-08-03T12:55:01.693Z,100170.00
2022-08-03T12:57:43.026Z,100159.00
2022-08-03T13:00:29.225Z,100164.00
2022-08-03T13:03:38.265Z,100160.00
2022-08-03T13:05:51.171Z,100157.00
2022-08-03T13:08:24.083Z,100155.00
2022-08-03T13:10:52.099Z,100154.00
2022-08-03T13:13:22.360Z,100163.00
2022-08-03T13:15:50.214Z,100159.00
2022-08-03T13:18:17.684Z,100153.00
2022-08-03T13:20:45.402Z,100151.00
2022-08-03T13:23:21.938Z,100155.00
2022-08-03T13:25:55.722Z,100149.00
2022-08-03T13:28:24.584Z,100151.00
2022-08-03T13:30:52.507Z,100150.00
2022-08-03T13:33:19.955Z,100156.00
2022-08-03T13:35:47.609Z,100151.00
2022-08-03T13:38:15.278Z,100157.00
2022-08-03T13:40:46.141Z,100156.00
2022-08-03T13:43:17.070Z,100144.00
2022-08-03T13:45:49.621Z,100145.00
2022-08-03T13:48:36.638Z,100143.00
2022-08-03T13:51:11.550Z,100144.00
2022-08-03T13:53:51.766Z,100143.00
2022-08-03T13:56:19.538Z,100140.00
2022-08-03T13:58:47.054Z,100128.00
2022-08-03T14:01:14.709Z,100139.00
2022-08-03T14:03:42.546Z,100134.00
2022-08-03T14:06:10.362Z,100125.00
2022-08-03T14:08:41.245Z,100126.00
2022-08-03T14:11:08.873Z,100122.00
2022-08-03T14:13:36.394Z,100121.00
2022-08-03T14:16:04.585Z,100123.00
2022-08-03T14:18:33.823Z,100112.00
2022-08-03T14:21:07.306Z,100116.00
2022-08-03T14:23:38.009Z,100121.00
2022-08-03T14:26:07.304Z,100119.00
2022-08-03T14:28:35.481Z,100121.00
2022-08-03T14:31:03.968Z,100119.00
2022-08-03T14:33:35.991Z,100125.00
2022-08-03T14:36:03.796Z,100118.00
2022-08-03T14:38:31.357Z,100125.00
2022-08-03T14:40:59.184Z,100120.00
2022-08-03T14:43:26.954Z,100117.00
2022-08-03T14:46:02.013Z,100112.00
2022-08-03T14:50:28.402Z,100106.00
2022-08-03T14:51:17.462Z,100122.00
2022-08-03T14:53:45.136Z,100118.00
2022-08-03T14:56:12.613Z,100107.00
2022-08-03T14:58:40.282Z,100112.00
2022-08-03T15:02:01.780Z,100117.00
2022-08-03T15:03:56.038Z,100101.00
2022-08-03T15:06:23.656Z,100096.00
2022-08-03T15:09:21.624Z,100110.00
2022-08-03T15:11:38.937Z,100105.00
2022-08-03T15:14:09.417Z,100091.00
2022-08-03T15:16:38.642Z,100095.00
2022-08-03T15:20:01.640Z,100096.00
2022-08-03T15:21:54.179Z,100092.00
2022-08-03T15:24:21.865Z,100092.00
2022-08-03T15:26:49.667Z,100096.00
2022-08-03T15:30:06.147Z,100087.00
2022-08-03T15:32:09.243Z,100089.00
2022-08-03T15:34:37.331Z,100082.00
2022-08-03T15:37:16.178Z,100082.00
2022-08-03T15:40:00.118Z,100086.00
2022-08-03T15:42:33.286Z,100084.00
2022-08-03T15:45:00.772Z,100081.00
2022-08-03T15:47:28.571Z,100077.00
2022-08-03T15:49:56.738Z,100083.00
2022-08-03T15:52:24.432Z,100080.00
2022-08-03T15:54:52.118Z,100080.00
2022-08-03T15:57:20.528Z,100078.00
2022-08-03T15:59:48.591Z,100077.00
2022-08-03T16:02:16.599Z,100077.00
2022-08-03T16:04:44.182Z,100068.00
2022-08-03T16:07:18.090Z,100074.00
2022-08-03T16:09:45.826Z,100073.00
2022-08-03T16:12:15.761Z,100074.00
2022-08-03T16:14:53.720Z,100069.00
2022-08-03T16:17:24.476Z,100065.00
2022-08-03T16:19:54.941Z,100069.00
2022-08-03T16:22:24.225Z,100062.00
2022-08-03T16:24:53.647Z,100061.00
2022-08-03T16:27:58.409Z,100057.00
2022-08-03T16:30:13.142Z,100065.00
2022-08-03T16:32:40.805Z,100067.00
2022-08-03T16:35:08.730Z,100062.00
2022-08-03T16:37:38.576Z,100062.00
2022-08-03T16:40:17.722Z,100073.00
2022-08-03T16:42:47.718Z,100061.00
2022-08-03T16:45:15.847Z,100062.00
2022-08-03T16:47:43.606Z,100062.00
2022-08-03T16:50:19.029Z,100059.00
2022-08-03T16:52:48.415Z,100055.00
2022-08-03T16:55:22.262Z,100053.00
2022-08-03T16:58:06.786Z,100057.00
2022-08-03T17:00:41.575Z,100055.00
2022-08-03T17:03:18.684Z,100061.00
2022-08-03T17:05:50.189Z,100067.00
2022-08-03T17:08:26.969Z,100064.00
2022-08-03T17:10:56.289Z,100058.00
2022-08-03T17:13:38.849Z,100069.00
2022-08-03T17:16:12.196Z,100073.00
2022-08-03T17:18:56.581Z,100075.00
2022-08-03T17:21:29.987Z,100069.00
2022-08-03T17:24:19.984Z,100076.00
2022-08-03T17:26:52.835Z,100080.00
2022-08-03T17:29:26.830Z,100073.00
2022-08-03T17:31:57.661Z,100075.00
2022-08-03T17:34:26.252Z,100077.00
2022-08-03T17:37:04.494Z,100075.00
2022-08-03T17:40:00.452Z,100076.00
2022-08-03T17:42:30.442Z,100077.00
2022-08-03T17:45:04.010Z,100074.00
2022-08-03T17:47:42.321Z,100079.00
2022-08-03T17:50:27.977Z,100080.00
2022-08-03T17:56:40.718Z,100079.00
2022-08-03T17:59:50.689Z,100084.00
2022-08-03T18:03:10.091Z,100088.00
2022-08-03T18:06:11.084Z,100082.00
2022-08-03T18:08:30.169Z,100093.00
2022-08-03T18:11:14.652Z,100091.00
2022-08-03T18:13:57.698Z,100088.00
2022-08-03T18:16:40.146Z,100085.00
2022-08-03T18:19:13.505Z,100087.00
2022-08-03T18:22:03.210Z,100095.00
2022-08-03T18:24:31.540Z,100090.00
2022-08-03T18:27:03.159Z,100090.00
2022-08-03T18:29:31.627Z,100091.00
2022-08-03T18:32:03.825Z,100090.00
2022-08-03T18:34:34.719Z,100091.00
2022-08-03T18:37:07.177Z,100087.00
2022-08-03T18:39:50.207Z,100081.00
2022-08-03T18:42:26.275Z,100095.00
2022-08-03T18:48:02.599Z,100083.00
2022-08-03T18:50:48.227Z,100090.00
2022-08-03T18:54:02.865Z,100095.00
2022-08-03T18:56:44.443Z,100094.00
2022-08-03T18:59:31.675Z,100098.00
2022-08-03T19:02:09.581Z,100098.00
2022-08-03T19:04:46.813Z,100098.00
2022-08-03T19:07:23.310Z,100100.00
2022-08-03T19:10:00.267Z,100104.00
2022-08-03T19:12:39.602Z,100107.00
2022-08-03T19:15:13.381Z,100107.00
2022-08-03T19:17:53.319Z,100105.00
2022-08-03T19:20:31.194Z,100103.00
2022-08-03T19:23:00.236Z,100100.00
2022-08-03T19:25:35.108Z,100104.00
2022-08-03T19:28:05.874Z,100103.00
2022-08-03T19:30:46.501Z,100107.00
2022-08-03T19:33:22.891Z,100104.00
2022-08-03T19:35:56.876Z,100101.00
2022-08-03T19:38:28.442Z,100106.00
2022-08-03T19:41:00.925Z,100106.00
2022-08-03T19:43:49.452Z,100110.00
2022-08-03T19:46:31.768Z,100106.00
2022-08-03T19:49:01.078Z,100108.00
2022-08-03T19:52:00.523Z,100108.00
2022-08-03T19:54:29.822Z,100107.00
2022-08-03T19:57:01.800Z,100114.00
2022-08-03T19:59:36.765Z,100111.00
2022-08-03T20:02:08.985Z,100111.00
2022-08-03T20:04:45.458Z,100110.00
2022-08-03T20:07:22.146Z,100110.00
2022-08-03T20:09:54.499Z,100106.00
2022-08-03T20:12:28.566Z,100107.00
2022-08-03T20:15:00.309Z,100108.00
2022-08-03T20:17:56.289Z,100118.00
2022-08-03T20:20:34.919Z,100103.00
2022-08-03T20:23:15.550Z,100107.00
2022-08-03T20:25:59.376Z,100116.00
2022-08-03T20:28:50.588Z,100112.00
2022-08-03T20:31:23.809Z,100111.00
2022-08-03T20:34:01.178Z,100113.00
2022-08-03T20:36:28.977Z,100115.00
2022-08-03T20:38:58.495Z,100115.00
2022-08-03T20:41:27.434Z,100115.00
2022-08-03T20:43:54.887Z,100112.00
2022-08-03T20:49:12.612Z,100112.00
2022-08-03T20:51:52.737Z,100120.00
2022-08-03T20:54:30.416Z,100119.00
2022-08-03T20:57:04.137Z,100124.00
2022-08-03T20:59:50.460Z,100119.00
2022-08-03T21:02:29.835Z,100126.00
2022-08-03T21:05:03.693Z,100120.00
2022-08-03T21:08:06.470Z,100123.00
2022-08-03T21:10:40.723Z,100122.00
2022-08-03T21:12:59.143Z,100084.00
2022-08-03T21:13:05.447Z,100080.00
2022-08-03T21:13:12.684Z,100109.00
2022-08-03T21:13:28.922Z,100128.00
2022-08-03T21:16:03.319Z,100124.00
2022-08-03T21:18:49.506Z,100124.00
2022-08-03T21:21:20.800Z,100126.00
2022-08-03T21:23:54.483Z,100124.00
2022-08-03T21:26:25.235Z,100122.00
2022-08-03T21:28:55.500Z,100113.00
2022-08-03T21:31:26.708Z,100108.00
2022-08-03T21:34:02.266Z,100114.00
2022-08-03T21:36:34.007Z,100123.00
2022-08-03T21:39:04.986Z,100118.00
2022-08-03T21:41:33.575Z,100113.00
2022-08-03T21:44:02.615Z,100124.00
2022-08-03T21:46:40.508Z,100120.00
2022-08-03T21:50:05.893Z,100125.00
2022-08-03T21:52:04.221Z,100126.00
2022-08-03T21:54:43.179Z,100115.00
2022-08-03T21:57:26.110Z,100118.00
2022-08-03T21:59:57.846Z,100121.00
2022-08-03T22:02:32.331Z,100112.00
2022-08-03T22:05:00.045Z,100111.00
2022-08-03T22:07:30.189Z,100110.00
2022-08-03T22:10:00.433Z,100125.00
2022-08-03T22:12:31.577Z,100116.00
2022-08-03T22:15:02.212Z,100113.00
2022-08-03T22:17:53.720Z,100118.00
2022-08-03T22:20:22.196Z,100116.00
2022-08-03T22:22:56.559Z,100115.00
2022-08-03T22:25:35.334Z,100118.00
2022-08-03T22:28:11.052Z,100112.00
2022-08-03T22:30:40.366Z,100117.00
2022-08-03T22:33:12.191Z,100109.00
2022-08-03T22:35:47.753Z,100112.00
2022-08-03T22:38:18.815Z,100119.00
2022-08-03T22:40:51.235Z,100113.00
2022-08-03T22:43:26.357Z,100123.00
2022-08-03T22:46:09.427Z,100119.00
2022-08-03T22:48:41.048Z,100127.00
2022-08-03T22:51:10.703Z,100119.00
2022-08-03T22:53:40.450Z,100121.00
2022-08-03T22:56:09.062Z,100124.00
2022-08-03T22:58:36.777Z,100120.00
2022-08-03T23:01:08.998Z,100130.00
2022-08-03T23:03:58.646Z,100122.00
2022-08-03T23:06:38.503Z,100123.00
2022-08-03T23:09:12.763Z,100124.00
2022-08-03T23:11:46.110Z,100117.00
2022-08-03T23:14:18.788Z,100123.00
2022-08-03T23:16:47.948Z,100115.00
2022-08-03T23:19:25.971Z,100120.00
2022-08-03T23:22:02.445Z,100122.00
2022-08-03T23:24:39.081Z,100120.00
2022-08-03T23:27:09.648Z,100117.00
2022-08-03T23:29:43.078Z,100116.00
2022-08-03T23:32:11.820Z,100117.00
2022-08-03T23:34:59.214Z,100113.00
2022-08-03T23:37:27.387Z,100116.00
2022-08-03T23:39:57.367Z,100108.00
2022-08-03T23:42:25.948Z,100116.00
2022-08-03T23:44:59.452Z,100114.00
2022-08-03T23:47:46.341Z,100117.00
2022-08-03T23:50:15.667Z,100116.00
2022-08-03T23:53:11.084Z,100118.00
2022-08-03T23:56:02.707Z,100111.00
2022-08-03T23:59:07.472Z,100115.00
